BEL9DN EDDF-EBBR
Flight info
| Callsign | BEL9DN |
|---|---|
| Flight time | 0h 38m |
| Altitude | 22000 |
| Route | SOBRA2L SOBRA Y180 BITBU Y181 GOPAS N852 LNO |
| Aircraft | A319/M-DE3FGIJ1LORVWY/H |
Departure
| Time | 2026-04-16 08:08 |
|---|---|
| Airport | Frankfurt Main Airport (EDDF) |
Arrival
| Time | 2026-04-16 08:47 |
|---|---|
| Airport | Brussels Airport (EBBR) |
| Time | Latitude | Longitude | Altitude | Speed | Heading |
|---|---|---|---|---|---|
| 2026-04-16 07:38 | 50.04918 | 8.57086 | 356 ft | 0 kts | 102° |
| 2026-04-16 08:02 | 50.04892 | 8.57094 | 358 ft | 6 kts | 183° |
| 2026-04-16 08:02 | 50.04833 | 8.57060 | 356 ft | 12 kts | 206° |
| 2026-04-16 08:03 | 50.04741 | 8.56996 | 358 ft | 17 kts | 204° |
| 2026-04-16 08:03 | 50.04633 | 8.56922 | 360 ft | 17 kts | 199° |
| 2026-04-16 08:03 | 50.04519 | 8.56879 | 359 ft | 16 kts | 192° |
| 2026-04-16 08:03 | 50.04438 | 8.56771 | 361 ft | 17 kts | 249° |
| 2026-04-16 08:04 | 50.04394 | 8.56588 | 360 ft | 19 kts | 249° |
| 2026-04-16 08:04 | 50.04345 | 8.56379 | 356 ft | 23 kts | 250° |
| 2026-04-16 08:04 | 50.04283 | 8.56121 | 358 ft | 27 kts | 250° |
| 2026-04-16 08:04 | 50.04217 | 8.55845 | 356 ft | 29 kts | 250° |
| 2026-04-16 08:05 | 50.04143 | 8.55540 | 352 ft | 29 kts | 249° |
| 2026-04-16 08:05 | 50.04073 | 8.55244 | 356 ft | 29 kts | 249° |
| 2026-04-16 08:05 | 50.04004 | 8.54956 | 359 ft | 28 kts | 249° |
| 2026-04-16 08:05 | 50.03935 | 8.54666 | 356 ft | 27 kts | 249° |
| 2026-04-16 08:06 | 50.03865 | 8.54387 | 352 ft | 28 kts | 243° |
| 2026-04-16 08:06 | 50.03775 | 8.54118 | 347 ft | 28 kts | 250° |
| 2026-04-16 08:06 | 50.03705 | 8.53828 | 347 ft | 29 kts | 249° |
| 2026-04-16 08:06 | 50.03632 | 8.53534 | 340 ft | 29 kts | 249° |
| 2026-04-16 08:07 | 50.03561 | 8.53233 | 338 ft | 30 kts | 249° |
| 2026-04-16 08:07 | 50.03489 | 8.52934 | 336 ft | 27 kts | 248° |
| 2026-04-16 08:07 | 50.03418 | 8.52667 | 333 ft | 25 kts | 249° |
| 2026-04-16 08:07 | 50.03363 | 8.52593 | 335 ft | 0 kts | 180° |
| 2026-04-16 08:08 | 50.03349 | 8.52594 | 336 ft | 8 kts | 179° |
| 2026-04-16 08:08 | 50.03000 | 8.52597 | 336 ft | 93 kts | 179° |
| 2026-04-16 08:08 | 50.02091 | 8.52603 | 350 ft | 158 kts | 180° |
| 2026-04-16 08:08 | 50.01005 | 8.52611 | 1053 ft | 158 kts | 181° |
| 2026-04-16 08:09 | 49.99907 | 8.52667 | 1879 ft | 158 kts | 180° |
| 2026-04-16 08:09 | 49.98807 | 8.52741 | 2671 ft | 159 kts | 180° |
| 2026-04-16 08:09 | 49.97702 | 8.52817 | 3390 ft | 159 kts | 180° |
| 2026-04-16 08:09 | 49.96554 | 8.52893 | 3887 ft | 175 kts | 180° |
| 2026-04-16 08:10 | 49.95260 | 8.52975 | 4279 ft | 198 kts | 180° |
| 2026-04-16 08:10 | 49.93796 | 8.53067 | 4674 ft | 223 kts | 179° |
| 2026-04-16 08:10 | 49.92194 | 8.53169 | 5422 ft | 235 kts | 180° |
| 2026-04-16 08:10 | 49.90546 | 8.53278 | 6373 ft | 239 kts | 180° |
| 2026-04-16 08:11 | 49.88872 | 8.53386 | 7309 ft | 243 kts | 180° |
| 2026-04-16 08:11 | 49.87176 | 8.53262 | 8184 ft | 247 kts | 193° |
| 2026-04-16 08:11 | 49.85468 | 8.52456 | 8727 ft | 269 kts | 202° |
| 2026-04-16 08:11 | 49.83651 | 8.51417 | 9394 ft | 284 kts | 202° |
| 2026-04-16 08:12 | 49.81799 | 8.50362 | 10274 ft | 292 kts | 202° |
| 2026-04-16 08:12 | 49.79824 | 8.49240 | 10730 ft | 314 kts | 202° |
| 2026-04-16 08:12 | 49.77878 | 8.47537 | 11196 ft | 328 kts | 224° |
| 2026-04-16 08:12 | 49.76548 | 8.44696 | 11985 ft | 329 kts | 249° |
| 2026-04-16 08:13 | 49.76107 | 8.41258 | 12880 ft | 329 kts | 272° |
| 2026-04-16 08:13 | 49.76503 | 8.37777 | 13789 ft | 330 kts | 284° |
| 2026-04-16 08:13 | 49.77049 | 8.34349 | 14601 ft | 333 kts | 284° |
| 2026-04-16 08:13 | 49.77618 | 8.30867 | 15360 ft | 336 kts | 284° |
| 2026-04-16 08:14 | 49.78195 | 8.27352 | 16109 ft | 339 kts | 284° |
| 2026-04-16 08:14 | 49.78775 | 8.23800 | 16879 ft | 342 kts | 284° |
| 2026-04-16 08:14 | 49.79358 | 8.20208 | 17619 ft | 346 kts | 284° |
| 2026-04-16 08:14 | 49.79943 | 8.16581 | 18355 ft | 349 kts | 284° |
| 2026-04-16 08:15 | 49.80530 | 8.12916 | 19041 ft | 352 kts | 283° |
| 2026-04-16 08:15 | 49.81113 | 8.09235 | 19722 ft | 354 kts | 283° |
| 2026-04-16 08:15 | 49.81698 | 8.05524 | 20414 ft | 356 kts | 283° |
| 2026-04-16 08:15 | 49.82287 | 8.01796 | 21095 ft | 357 kts | 283° |
| 2026-04-16 08:16 | 49.82878 | 7.98043 | 21761 ft | 360 kts | 283° |
| 2026-04-16 08:16 | 49.83471 | 7.94270 | 22137 ft | 361 kts | 283° |
| 2026-04-16 08:16 | 49.84060 | 7.90505 | 22230 ft | 357 kts | 283° |
| 2026-04-16 08:16 | 49.84640 | 7.86792 | 22233 ft | 353 kts | 283° |
| 2026-04-16 08:17 | 49.85215 | 7.83108 | 22236 ft | 352 kts | 283° |
| 2026-04-16 08:17 | 49.85780 | 7.79476 | 22230 ft | 351 kts | 283° |
| 2026-04-16 08:17 | 49.86356 | 7.75799 | 22231 ft | 351 kts | 283° |
| 2026-04-16 08:17 | 49.86937 | 7.72127 | 22234 ft | 351 kts | 283° |
| 2026-04-16 08:18 | 49.87517 | 7.68460 | 22232 ft | 350 kts | 283° |
| 2026-04-16 08:19 | 49.91472 | 7.42771 | 22232 ft | 350 kts | 282° |
| 2026-04-16 08:20 | 49.92034 | 7.39097 | 22228 ft | 350 kts | 282° |
| 2026-04-16 08:20 | 49.92595 | 7.35426 | 22227 ft | 350 kts | 282° |
| 2026-04-16 08:20 | 49.93154 | 7.31745 | 22222 ft | 350 kts | 282° |
| 2026-04-16 08:20 | 49.93709 | 7.28066 | 22225 ft | 350 kts | 282° |
| 2026-04-16 08:21 | 49.94259 | 7.24404 | 22221 ft | 349 kts | 282° |
| 2026-04-16 08:21 | 49.94810 | 7.20726 | 22230 ft | 349 kts | 282° |
| 2026-04-16 08:21 | 49.95360 | 7.17052 | 22224 ft | 349 kts | 282° |
| 2026-04-16 08:21 | 49.95907 | 7.13392 | 22231 ft | 349 kts | 282° |
| 2026-04-16 08:22 | 49.96456 | 7.09715 | 22219 ft | 349 kts | 282° |
| 2026-04-16 08:22 | 49.97005 | 7.06046 | 22213 ft | 349 kts | 282° |
| 2026-04-16 08:22 | 49.97552 | 7.02377 | 22213 ft | 349 kts | 282° |
| 2026-04-16 08:22 | 49.98097 | 6.98705 | 22218 ft | 349 kts | 282° |
| 2026-04-16 08:23 | 49.98642 | 6.95042 | 22226 ft | 349 kts | 282° |
| 2026-04-16 08:23 | 49.99360 | 6.91452 | 22225 ft | 350 kts | 291° |
| 2026-04-16 08:23 | 50.00533 | 6.88133 | 22214 ft | 352 kts | 302° |
| 2026-04-16 08:23 | 50.02036 | 6.85114 | 22217 ft | 353 kts | 306° |
| 2026-04-16 08:24 | 50.03538 | 6.82165 | 22222 ft | 353 kts | 306° |
| 2026-04-16 08:24 | 50.05056 | 6.79176 | 22222 ft | 352 kts | 305° |
| 2026-04-16 08:24 | 50.06571 | 6.76178 | 22213 ft | 352 kts | 305° |
| 2026-04-16 08:24 | 50.08082 | 6.73181 | 22204 ft | 352 kts | 305° |
| 2026-04-16 08:25 | 50.09592 | 6.70182 | 22205 ft | 351 kts | 305° |
| 2026-04-16 08:25 | 50.11094 | 6.67192 | 22205 ft | 351 kts | 305° |
| 2026-04-16 08:25 | 50.12598 | 6.64192 | 22204 ft | 351 kts | 305° |
| 2026-04-16 08:25 | 50.14099 | 6.61192 | 22203 ft | 351 kts | 305° |
| 2026-04-16 08:26 | 50.15602 | 6.58194 | 22196 ft | 351 kts | 305° |
| 2026-04-16 08:26 | 50.17126 | 6.55156 | 22193 ft | 351 kts | 305° |
| 2026-04-16 08:26 | 50.18610 | 6.52197 | 22194 ft | 351 kts | 305° |
| 2026-04-16 08:26 | 50.20110 | 6.49196 | 22193 ft | 351 kts | 305° |
| 2026-04-16 08:27 | 50.21612 | 6.46191 | 22193 ft | 351 kts | 305° |
| 2026-04-16 08:27 | 50.23130 | 6.43147 | 22202 ft | 351 kts | 305° |
| 2026-04-16 08:27 | 50.24627 | 6.40136 | 22212 ft | 350 kts | 305° |
| 2026-04-16 08:27 | 50.26103 | 6.37170 | 22209 ft | 350 kts | 305° |
| 2026-04-16 08:28 | 50.27598 | 6.34165 | 22211 ft | 350 kts | 305° |
| 2026-04-16 08:28 | 50.29091 | 6.31160 | 22209 ft | 350 kts | 305° |
| 2026-04-16 08:28 | 50.30581 | 6.28154 | 22207 ft | 350 kts | 305° |
| 2026-04-16 08:28 | 50.32068 | 6.25147 | 22216 ft | 350 kts | 305° |
| 2026-04-16 08:29 | 50.33557 | 6.22141 | 22213 ft | 349 kts | 305° |
| 2026-04-16 08:29 | 50.35047 | 6.19128 | 22212 ft | 349 kts | 305° |
| 2026-04-16 08:29 | 50.36534 | 6.16117 | 22210 ft | 349 kts | 304° |
| 2026-04-16 08:29 | 50.38017 | 6.13106 | 22209 ft | 349 kts | 304° |
| 2026-04-16 08:30 | 50.39501 | 6.10093 | 22213 ft | 349 kts | 304° |
| 2026-04-16 08:30 | 50.40984 | 6.07081 | 22213 ft | 349 kts | 304° |
| 2026-04-16 08:30 | 50.42468 | 6.04063 | 22213 ft | 349 kts | 304° |
| 2026-04-16 08:30 | 50.43949 | 6.01048 | 22220 ft | 349 kts | 304° |
| 2026-04-16 08:31 | 50.45435 | 5.98018 | 22219 ft | 354 kts | 304° |
| 2026-04-16 08:31 | 50.46942 | 5.94936 | 22047 ft | 356 kts | 304° |
| 2026-04-16 08:31 | 50.48450 | 5.91842 | 21357 ft | 359 kts | 304° |
| 2026-04-16 08:31 | 50.49969 | 5.88729 | 20786 ft | 358 kts | 304° |
| 2026-04-16 08:32 | 50.51482 | 5.85631 | 20270 ft | 357 kts | 304° |
| 2026-04-16 08:32 | 50.52990 | 5.82541 | 19746 ft | 355 kts | 304° |
| 2026-04-16 08:32 | 50.54487 | 5.79465 | 19174 ft | 354 kts | 304° |
| 2026-04-16 08:32 | 50.55980 | 5.76393 | 18707 ft | 351 kts | 304° |
| 2026-04-16 08:33 | 50.57458 | 5.73346 | 18143 ft | 350 kts | 304° |
| 2026-04-16 08:33 | 50.58926 | 5.70321 | 17645 ft | 346 kts | 305° |
| 2026-04-16 08:33 | 50.60400 | 5.67365 | 17174 ft | 341 kts | 306° |
| 2026-04-16 08:33 | 50.61879 | 5.64465 | 16714 ft | 338 kts | 306° |
| 2026-04-16 08:34 | 50.63351 | 5.61604 | 16257 ft | 335 kts | 306° |
| 2026-04-16 08:34 | 50.64809 | 5.58774 | 15819 ft | 331 kts | 306° |
| 2026-04-16 08:34 | 50.66252 | 5.55962 | 15368 ft | 328 kts | 306° |
| 2026-04-16 08:34 | 50.67684 | 5.53164 | 14784 ft | 330 kts | 306° |
| 2026-04-16 08:35 | 50.69126 | 5.50330 | 14244 ft | 331 kts | 306° |
| 2026-04-16 08:35 | 50.70557 | 5.47509 | 13760 ft | 328 kts | 306° |
| 2026-04-16 08:35 | 50.71974 | 5.44711 | 13299 ft | 325 kts | 306° |
| 2026-04-16 08:35 | 50.73376 | 5.41938 | 12850 ft | 321 kts | 306° |
| 2026-04-16 08:36 | 50.74762 | 5.39186 | 12408 ft | 318 kts | 306° |
| 2026-04-16 08:36 | 50.76128 | 5.36466 | 11964 ft | 315 kts | 306° |
| 2026-04-16 08:36 | 50.77481 | 5.33769 | 11516 ft | 312 kts | 306° |
| 2026-04-16 08:36 | 50.78823 | 5.31096 | 11073 ft | 310 kts | 306° |
| 2026-04-16 08:37 | 50.80157 | 5.28439 | 10631 ft | 308 kts | 306° |
| 2026-04-16 08:37 | 50.81484 | 5.25793 | 10229 ft | 305 kts | 306° |
| 2026-04-16 08:37 | 50.82776 | 5.23222 | 10090 ft | 292 kts | 306° |
| 2026-04-16 08:37 | 50.84017 | 5.20754 | 9898 ft | 282 kts | 305° |
| 2026-04-16 08:38 | 50.85224 | 5.18347 | 9629 ft | 278 kts | 305° |
| 2026-04-16 08:38 | 50.86428 | 5.15943 | 9159 ft | 279 kts | 305° |
| 2026-04-16 08:38 | 50.87614 | 5.13548 | 8699 ft | 279 kts | 303° |
| 2026-04-16 08:38 | 50.88659 | 5.10990 | 8243 ft | 277 kts | 299° |
| 2026-04-16 08:39 | 50.89684 | 5.08437 | 7906 ft | 273 kts | 299° |
| 2026-04-16 08:39 | 50.90701 | 5.05912 | 7494 ft | 272 kts | 299° |
| 2026-04-16 08:39 | 50.91699 | 5.03424 | 7084 ft | 270 kts | 299° |
| 2026-04-16 08:39 | 50.92704 | 5.00922 | 6672 ft | 269 kts | 298° |
| 2026-04-16 08:40 | 50.93704 | 4.98432 | 6236 ft | 267 kts | 299° |
| 2026-04-16 08:40 | 50.94701 | 4.95948 | 5723 ft | 269 kts | 299° |
| 2026-04-16 08:40 | 50.95716 | 4.93409 | 5211 ft | 271 kts | 299° |
| 2026-04-16 08:40 | 50.96609 | 4.90866 | 5004 ft | 257 kts | 287° |
| 2026-04-16 08:41 | 50.97137 | 4.88241 | 4876 ft | 243 kts | 283° |
| 2026-04-16 08:41 | 50.97346 | 4.85649 | 4562 ft | 234 kts | 263° |
| 2026-04-16 08:41 | 50.96955 | 4.83204 | 4254 ft | 227 kts | 249° |
| 2026-04-16 08:41 | 50.96420 | 4.80866 | 3951 ft | 223 kts | 249° |
| 2026-04-16 08:42 | 50.95899 | 4.78573 | 3648 ft | 220 kts | 249° |
| 2026-04-16 08:42 | 50.95384 | 4.76307 | 3363 ft | 217 kts | 249° |
| 2026-04-16 08:42 | 50.94873 | 4.74065 | 3058 ft | 214 kts | 249° |
| 2026-04-16 08:42 | 50.94378 | 4.71893 | 2782 ft | 204 kts | 249° |
| 2026-04-16 08:43 | 50.93904 | 4.69818 | 2514 ft | 196 kts | 249° |
| 2026-04-16 08:43 | 50.93454 | 4.67849 | 2280 ft | 182 kts | 249° |
| 2026-04-16 08:43 | 50.93044 | 4.66053 | 2021 ft | 165 kts | 250° |
| 2026-04-16 08:43 | 50.92671 | 4.64427 | 1811 ft | 147 kts | 249° |
| 2026-04-16 08:44 | 50.92345 | 4.63003 | 1610 ft | 130 kts | 249° |
| 2026-04-16 08:44 | 50.92046 | 4.61700 | 1438 ft | 122 kts | 249° |
| 2026-04-16 08:44 | 50.91759 | 4.60447 | 1276 ft | 120 kts | 250° |
| 2026-04-16 08:44 | 50.91475 | 4.59212 | 1111 ft | 119 kts | 249° |
| 2026-04-16 08:45 | 50.91195 | 4.57992 | 952 ft | 118 kts | 248° |
| 2026-04-16 08:45 | 50.90914 | 4.56769 | 793 ft | 119 kts | 249° |
| 2026-04-16 08:45 | 50.90631 | 4.55541 | 629 ft | 121 kts | 249° |
| 2026-04-16 08:45 | 50.90349 | 4.54290 | 515 ft | 119 kts | 247° |
| 2026-04-16 08:46 | 50.90064 | 4.53056 | 324 ft | 120 kts | 248° |
| 2026-04-16 08:46 | 50.89787 | 4.51838 | 201 ft | 119 kts | 248° |
| 2026-04-16 08:46 | 50.89539 | 4.50794 | 175 ft | 85 kts | 250° |
| 2026-04-16 08:46 | 50.89395 | 4.50164 | 177 ft | 55 kts | 250° |
| 2026-04-16 08:47 | 50.89339 | 4.49915 | 178 ft | 10 kts | 257° |
| 2026-04-16 08:47 | 50.89334 | 4.49797 | 178 ft | 12 kts | 278° |
| 2026-04-16 08:47 | 50.89375 | 4.49664 | 173 ft | 17 kts | 309° |
| 2026-04-16 08:47 | 50.89428 | 4.49556 | 168 ft | 20 kts | 306° |
| 2026-04-16 08:48 | 50.89520 | 4.49357 | 163 ft | 24 kts | 308° |
| 2026-04-16 08:48 | 50.89611 | 4.49166 | 155 ft | 9 kts | 307° |
| 2026-04-16 08:48 | 50.89680 | 4.49159 | 150 ft | 13 kts | 12° |
| 2026-04-16 08:48 | 50.89750 | 4.49188 | 147 ft | 17 kts | 14° |
| 2026-04-16 08:49 | 50.89877 | 4.49240 | 139 ft | 13 kts | 14° |
| 2026-04-16 08:49 | 50.89972 | 4.49278 | 134 ft | 17 kts | 14° |
| 2026-04-16 08:49 | 50.90095 | 4.49328 | 127 ft | 19 kts | 15° |
| 2026-04-16 08:49 | 50.90216 | 4.49376 | 128 ft | 17 kts | 16° |
| 2026-04-16 08:50 | 50.90333 | 4.49370 | 123 ft | 18 kts | 320° |
| 2026-04-16 08:50 | 50.90450 | 4.49276 | 121 ft | 21 kts | 335° |
| 2026-04-16 08:50 | 50.90585 | 4.49180 | 120 ft | 20 kts | 335° |
| 2026-04-16 08:50 | 50.90635 | 4.49040 | 120 ft | 17 kts | 247° |
| 2026-04-16 08:51 | 50.90583 | 4.48862 | 121 ft | 18 kts | 245° |
| 2026-04-16 08:51 | 50.90528 | 4.48673 | 120 ft | 19 kts | 245° |
| 2026-04-16 08:51 | 50.90472 | 4.48473 | 117 ft | 20 kts | 245° |
| 2026-04-16 08:51 | 50.90422 | 4.48328 | 121 ft | 11 kts | 212° |
| 2026-04-16 08:52 | 50.90369 | 4.48352 | 119 ft | 7 kts | 154° |
| 2026-04-16 08:52 | 50.90348 | 4.48367 | 120 ft | 1 kts | 155° |
| 2026-04-16 08:52 | 50.90340 | 4.48373 | 120 ft | 0 kts | 155° |
| 2026-04-16 08:52 | 50.90338 | 4.48375 | 120 ft | 0 kts | 155° |